createdAt,value
2018-12-15T00:01:11.588Z,1.93
2018-12-15T00:03:39.125Z,1.93
2018-12-15T00:06:06.673Z,1.94
2018-12-15T00:08:34.243Z,1.97
2018-12-15T00:11:02.130Z,1.86
2018-12-15T00:13:29.666Z,1.81
2018-12-15T00:15:57.202Z,1.87
2018-12-15T00:18:24.723Z,1.81
2018-12-15T00:20:52.255Z,1.81
2018-12-15T00:23:19.931Z,1.81
2018-12-15T00:25:47.644Z,1.81
2018-12-15T00:28:15.151Z,1.82
2018-12-15T00:30:42.683Z,1.88
2018-12-15T00:33:10.338Z,1.88
2018-12-15T00:35:38.159Z,1.88
2018-12-15T00:38:05.683Z,1.84
2018-12-15T00:40:33.355Z,1.88
2018-12-15T00:43:00.873Z,1.83
2018-12-15T00:45:28.409Z,1.88
2018-12-15T00:47:55.959Z,1.87
2018-12-15T00:50:23.811Z,1.79
2018-12-15T00:52:51.356Z,1.87
2018-12-15T00:55:18.872Z,1.84
2018-12-15T00:57:46.414Z,1.79
2018-12-15T01:00:14.678Z,1.81
2018-12-15T01:02:42.531Z,1.83
2018-12-15T01:05:10.693Z,1.83
2018-12-15T01:07:38.388Z,1.81
2018-12-15T01:10:06.099Z,1.83
2018-12-15T01:12:33.647Z,1.83
2018-12-15T01:15:01.185Z,1.87
2018-12-15T01:17:28.717Z,1.90
2018-12-15T01:19:56.329Z,2.00
2018-12-15T01:22:23.877Z,1.98
2018-12-15T01:24:51.699Z,1.87
2018-12-15T01:27:19.866Z,1.96
2018-12-15T01:29:47.404Z,1.93
2018-12-15T01:32:14.936Z,2.01
2018-12-15T01:34:43.393Z,2.03
2018-12-15T01:37:11.228Z,1.90
2018-12-15T01:39:38.755Z,1.89
2018-12-15T01:42:06.289Z,1.87
2018-12-15T01:44:33.818Z,1.85
2018-12-15T01:47:01.375Z,1.91
2018-12-15T01:49:29.178Z,1.96
2018-12-15T01:51:56.711Z,1.93
2018-12-15T01:54:24.239Z,1.85
2018-12-15T01:56:51.755Z,1.94
2018-12-15T01:59:19.272Z,1.92
2018-12-15T02:01:47.297Z,1.84
2018-12-15T02:04:14.827Z,1.80
2018-12-15T02:06:42.366Z,1.83
2018-12-15T02:09:10.022Z,1.86
2018-12-15T02:11:37.570Z,1.85
2018-12-15T02:14:05.378Z,1.79
2018-12-15T02:16:33.555Z,1.75
2018-12-15T02:19:01.559Z,1.87
2018-12-15T02:21:29.124Z,1.78
2018-12-15T02:23:56.658Z,1.85
2018-12-15T02:26:24.535Z,1.79
2018-12-15T02:28:52.076Z,1.80
2018-12-15T02:31:19.607Z,1.73
2018-12-15T02:33:47.159Z,1.67
2018-12-15T02:36:14.750Z,1.71
2018-12-15T02:38:42.438Z,1.64
2018-12-15T02:41:10.061Z,1.60
2018-12-15T02:43:37.714Z,1.63
2018-12-15T02:46:05.246Z,1.60
2018-12-15T02:48:32.778Z,1.64
2018-12-15T02:51:00.336Z,1.63
2018-12-15T02:53:28.482Z,1.64
2018-12-15T02:55:56.014Z,1.66
2018-12-15T02:58:23.535Z,1.70
2018-12-15T03:00:51.061Z,1.72
2018-12-15T03:03:18.825Z,1.72
2018-12-15T03:05:46.387Z,1.67
2018-12-15T03:08:13.913Z,1.70
2018-12-15T03:10:41.453Z,1.78
2018-12-15T03:13:09.032Z,1.73
2018-12-15T03:15:36.588Z,1.78
2018-12-15T03:18:04.139Z,1.76
2018-12-15T03:20:31.682Z,1.71
2018-12-15T03:22:59.239Z,1.74
2018-12-15T03:25:26.890Z,1.78
2018-12-15T03:27:54.778Z,1.77
2018-12-15T03:30:22.313Z,1.83
2018-12-15T03:32:49.906Z,1.77
2018-12-15T03:35:17.534Z,1.80
2018-12-15T03:37:45.074Z,1.84
2018-12-15T03:40:12.630Z,1.91
2018-12-15T03:42:40.348Z,1.88
2018-12-15T03:45:07.885Z,1.86
2018-12-15T03:47:35.429Z,1.98
2018-12-15T03:50:03.120Z,1.99
2018-12-15T03:52:30.665Z,1.94
2018-12-15T03:54:58.461Z,1.98
2018-12-15T03:57:25.979Z,1.93
2018-12-15T03:59:53.624Z,1.97
2018-12-15T04:02:21.177Z,1.92
2018-12-15T04:04:48.839Z,2.00
2018-12-15T04:07:16.407Z,1.87
2018-12-15T04:09:44.199Z,1.90
2018-12-15T04:12:11.739Z,1.91
2018-12-15T04:14:39.268Z,1.87
2018-12-15T04:17:06.802Z,1.87
2018-12-15T04:19:34.584Z,1.93
2018-12-15T04:22:19.894Z,1.86
2018-12-15T04:24:47.742Z,1.85
2018-12-15T04:27:15.272Z,1.73
2018-12-15T04:29:42.785Z,1.73
2018-12-15T04:32:10.297Z,1.72
2018-12-15T04:34:37.811Z,1.72
2018-12-15T04:37:05.641Z,1.72
2018-12-15T04:39:33.177Z,1.65
2018-12-15T04:42:00.704Z,1.67
2018-12-15T04:44:28.227Z,1.68
2018-12-15T04:46:55.781Z,1.70
2018-12-15T04:49:23.578Z,1.72
2018-12-15T04:51:51.099Z,1.62
2018-12-15T04:54:18.630Z,1.65
2018-12-15T04:56:46.157Z,1.67
2018-12-15T04:59:14.223Z,1.64
2018-12-15T05:01:42.478Z,1.65
2018-12-15T05:04:10.018Z,1.66
2018-12-15T05:06:37.570Z,1.66
2018-12-15T05:09:06.255Z,1.66
2018-12-15T05:11:33.798Z,1.72
2018-12-15T05:14:01.614Z,1.63
2018-12-15T05:16:29.354Z,1.62
2018-12-15T05:18:56.952Z,1.60
2018-12-15T05:21:24.502Z,1.65
2018-12-15T05:23:52.043Z,1.60
2018-12-15T05:26:19.602Z,1.69
2018-12-15T05:28:47.158Z,1.67
2018-12-15T05:31:14.750Z,1.62
2018-12-15T05:33:42.325Z,1.62
2018-12-15T05:36:09.916Z,1.66
2018-12-15T05:38:37.804Z,1.70
2018-12-15T05:41:05.344Z,1.70
2018-12-15T05:43:32.877Z,1.66
2018-12-15T05:46:00.413Z,1.68
2018-12-15T05:48:27.937Z,1.72
2018-12-15T05:50:55.589Z,1.76
2018-12-15T05:53:23.105Z,1.84
2018-12-15T05:55:50.644Z,1.74
2018-12-15T05:58:18.180Z,1.82
2018-12-15T06:00:45.707Z,1.76
2018-12-15T06:03:13.495Z,1.85
2018-12-15T06:05:41.018Z,1.91
2018-12-15T06:08:08.530Z,2.01
2018-12-15T06:10:36.079Z,2.04
2018-12-15T06:13:03.685Z,2.04
2018-12-15T06:15:31.443Z,2.06
2018-12-15T06:17:58.994Z,2.12
2018-12-15T06:20:26.563Z,2.14
2018-12-15T06:22:54.096Z,2.15
2018-12-15T06:25:21.663Z,2.27
2018-12-15T06:27:49.269Z,2.24
2018-12-15T06:30:16.829Z,2.24
2018-12-15T06:32:44.399Z,2.35
2018-12-15T06:35:11.903Z,2.31
2018-12-15T06:37:39.479Z,2.49
2018-12-15T06:40:07.587Z,2.57
2018-12-15T06:42:35.134Z,2.61
2018-12-15T06:45:02.663Z,2.71
2018-12-15T06:47:30.217Z,2.83
2018-12-15T06:49:57.772Z,2.68
2018-12-15T06:52:25.660Z,2.59
2018-12-15T06:54:53.235Z,2.65
2018-12-15T06:57:20.775Z,2.71
2018-12-15T06:59:48.634Z,2.66
2018-12-15T07:02:16.167Z,2.71
2018-12-15T07:04:43.678Z,2.77
2018-12-15T07:07:11.470Z,2.86
2018-12-15T07:09:39.001Z,3.05
2018-12-15T07:12:06.560Z,3.13
2018-12-15T07:14:34.091Z,3.17
2018-12-15T07:17:01.603Z,3.14
2018-12-15T07:19:29.431Z,3.17
2018-12-15T07:21:56.934Z,3.20
2018-12-15T07:33:24.400Z,3.35
2018-12-15T07:35:51.924Z,3.38
2018-12-15T07:38:19.499Z,3.46
2018-12-15T07:40:47.336Z,3.68
2018-12-15T07:43:14.853Z,3.85
2018-12-15T07:45:42.372Z,3.93
2018-12-15T07:48:10.266Z,4.10
2018-12-15T07:50:37.776Z,4.10
2018-12-15T07:53:05.285Z,4.24
2018-12-15T07:55:33.274Z,4.34
2018-12-15T07:58:00.787Z,4.39
2018-12-15T08:00:30.646Z,4.54
2018-12-15T08:02:58.511Z,4.52
2018-12-15T08:05:26.036Z,4.73
2018-12-15T08:07:53.537Z,4.68
2018-12-15T08:10:24.252Z,4.77
2018-12-15T08:12:56.849Z,4.92
2018-12-15T08:15:25.507Z,4.98
2018-12-15T08:17:53.019Z,4.99
2018-12-15T08:20:46.712Z,4.87
2018-12-15T08:23:14.255Z,4.98
2018-12-15T08:25:42.028Z,4.83
2018-12-15T08:28:09.623Z,4.78
2018-12-15T08:30:37.234Z,5.08
2018-12-15T08:33:04.872Z,5.17
2018-12-15T08:35:32.396Z,5.20
2018-12-15T08:38:00.191Z,5.01
2018-12-15T08:40:27.720Z,5.01
2018-12-15T08:42:55.530Z,4.71
2018-12-15T08:45:23.027Z,4.62
2018-12-15T08:47:50.559Z,4.72
2018-12-15T08:50:18.115Z,4.71
2018-12-15T08:52:45.635Z,4.56
2018-12-15T08:55:27.102Z,4.83
2018-12-15T08:57:54.616Z,4.85
2018-12-15T09:00:22.151Z,4.79
2018-12-15T09:02:49.661Z,4.86
2018-12-15T09:05:17.191Z,4.92
2018-12-15T09:07:45.056Z,4.92
2018-12-15T09:10:12.582Z,4.94
2018-12-15T09:12:40.087Z,5.17
2018-12-15T09:15:07.602Z,5.08
2018-12-15T09:17:35.109Z,5.18
2018-12-15T09:20:02.736Z,5.30
2018-12-15T09:22:30.272Z,5.22
2018-12-15T09:24:57.769Z,4.99
2018-12-15T09:27:25.746Z,4.97
2018-12-15T09:29:53.333Z,4.91
2018-12-15T09:32:21.189Z,4.97
2018-12-15T09:34:48.705Z,5.06
2018-12-15T09:37:16.241Z,4.91
2018-12-15T09:39:43.745Z,5.04
2018-12-15T09:42:14.076Z,5.09
2018-12-15T09:44:41.615Z,4.99
2018-12-15T09:47:09.173Z,5.14
2018-12-15T09:49:36.979Z,5.13
2018-12-15T09:52:04.510Z,5.12
2018-12-15T09:54:32.453Z,4.99
2018-12-15T09:56:59.980Z,4.87
2018-12-15T09:59:27.835Z,4.81
2018-12-15T10:01:55.355Z,4.79
2018-12-15T10:04:23.007Z,4.70
2018-12-15T10:06:51.104Z,4.75
2018-12-15T10:09:22.277Z,4.83
2018-12-15T10:11:49.815Z,4.96
2018-12-15T10:14:17.349Z,5.05
2018-12-15T10:16:45.144Z,5.02
2018-12-15T10:19:12.668Z,4.98
2018-12-15T10:21:40.444Z,4.96
2018-12-15T10:24:07.948Z,4.75
2018-12-15T10:26:35.478Z,4.83
2018-12-15T10:29:02.970Z,4.77
2018-12-15T10:34:35.637Z,4.78
2018-12-15T10:37:04.444Z,4.96
2018-12-15T10:39:32.308Z,4.92
2018-12-15T10:42:00.132Z,4.69
2018-12-15T10:44:27.630Z,4.67
2018-12-15T10:46:55.135Z,4.86
2018-12-15T10:49:22.916Z,4.96
2018-12-15T10:51:50.430Z,4.80
2018-12-15T10:54:17.923Z,4.75
2018-12-15T10:56:45.421Z,4.79
2018-12-15T10:59:12.929Z,4.77
2018-12-15T11:01:40.795Z,4.75
2018-12-15T11:04:08.569Z,4.72
2018-12-15T11:06:36.071Z,4.66
2018-12-15T11:09:06.565Z,4.65
2018-12-15T11:11:34.073Z,4.68
2018-12-15T11:14:06.600Z,4.75
2018-12-15T11:16:34.135Z,4.86
2018-12-15T11:19:01.694Z,4.97
2018-12-15T11:21:29.487Z,4.66
2018-12-15T11:23:56.988Z,4.60
2018-12-15T11:26:24.525Z,4.63
2018-12-15T11:28:52.134Z,4.70
2018-12-15T11:31:19.695Z,4.64
2018-12-15T11:33:47.469Z,4.60
2018-12-15T11:36:14.958Z,4.53
2018-12-15T11:38:42.473Z,4.40
2018-12-15T11:41:10.007Z,4.53
2018-12-15T11:43:37.504Z,4.53
2018-12-15T11:46:05.228Z,4.47
2018-12-15T11:48:33.038Z,4.47
2018-12-15T11:51:00.574Z,4.47
2018-12-15T11:53:28.133Z,4.50
2018-12-15T11:55:56.000Z,4.63
2018-12-15T11:58:23.516Z,4.73
2018-12-15T12:00:51.016Z,4.76
2018-12-15T12:03:18.551Z,4.73
2018-12-15T12:05:46.090Z,4.90
2018-12-15T12:08:13.592Z,4.91
2018-12-15T12:10:41.374Z,5.01
2018-12-15T12:13:08.911Z,5.08
2018-12-15T12:15:36.424Z,5.27
2018-12-15T12:18:04.109Z,5.17
2018-12-15T12:20:31.616Z,5.21
2018-12-15T12:22:59.110Z,5.00
2018-12-15T12:25:32.834Z,5.02
2018-12-15T12:28:00.415Z,5.10
2018-12-15T12:30:27.914Z,5.02
2018-12-15T12:32:55.483Z,5.02
2018-12-15T12:35:22.984Z,5.16
2018-12-15T12:37:50.785Z,5.11
2018-12-15T12:40:18.310Z,5.05
2018-12-15T12:42:45.817Z,5.09
2018-12-15T12:45:13.430Z,5.11
2018-12-15T12:47:40.931Z,4.90
2018-12-15T12:50:08.563Z,5.01
2018-12-15T12:52:36.315Z,4.87
2018-12-15T12:55:04.473Z,4.90
2018-12-15T12:57:31.975Z,4.91
2018-12-15T12:59:59.907Z,4.97
2018-12-15T13:02:27.437Z,4.87
2018-12-15T13:04:54.954Z,4.84
2018-12-15T13:07:22.992Z,4.94
2018-12-15T13:09:50.497Z,4.85
2018-12-15T13:12:18.078Z,4.82
2018-12-15T13:14:45.613Z,4.93
2018-12-15T13:17:13.128Z,4.86
2018-12-15T13:19:40.643Z,4.68
2018-12-15T13:22:08.550Z,4.74
2018-12-15T13:24:36.106Z,4.69
2018-12-15T13:27:03.726Z,4.64
2018-12-15T13:29:31.476Z,4.73
2018-12-15T13:31:59.238Z,4.60
2018-12-15T13:34:26.740Z,4.67
2018-12-15T13:36:54.741Z,4.71
2018-12-15T13:39:22.242Z,4.62
2018-12-15T13:41:49.740Z,4.81
2018-12-15T13:44:17.520Z,4.56
2018-12-15T13:46:45.021Z,4.67
2018-12-15T13:49:12.546Z,4.64
2018-12-15T13:51:40.382Z,4.55
2018-12-15T13:54:07.944Z,4.61
2018-12-15T13:56:35.459Z,4.53
2018-12-15T13:59:02.996Z,4.51
2018-12-15T14:01:30.509Z,4.49
2018-12-15T14:03:58.024Z,4.56
2018-12-15T14:06:25.865Z,4.55
2018-12-15T14:08:53.373Z,4.54
2018-12-15T14:11:20.894Z,4.54
2018-12-15T14:13:48.719Z,4.40
2018-12-15T14:16:16.238Z,4.43
2018-12-15T14:18:43.745Z,4.45
2018-12-15T14:21:11.515Z,4.41
2018-12-15T14:23:39.053Z,4.38
2018-12-15T14:26:06.616Z,4.42
2018-12-15T14:28:34.407Z,4.33
2018-12-15T14:31:01.921Z,4.41
2018-12-15T14:33:29.415Z,4.34
2018-12-15T14:35:56.954Z,4.44
2018-12-15T14:38:24.467Z,4.32
2018-12-15T14:40:52.022Z,4.37
2018-12-15T14:43:19.538Z,4.43
2018-12-15T14:45:47.090Z,4.37
2018-12-15T14:48:14.610Z,4.35
2018-12-15T14:50:42.133Z,4.31
2018-12-15T14:53:09.686Z,4.31
2018-12-15T14:55:37.224Z,4.21
2018-12-15T14:58:04.754Z,4.18
2018-12-15T15:00:32.312Z,4.18
2018-12-15T15:02:59.831Z,4.20
2018-12-15T15:05:27.693Z,4.22
2018-12-15T15:07:55.213Z,4.22
2018-12-15T15:10:22.741Z,4.19
2018-12-15T15:12:50.260Z,4.19
2018-12-15T15:15:17.775Z,4.19
2018-12-15T15:17:45.337Z,4.16
2018-12-15T15:20:13.045Z,4.18
2018-12-15T15:22:40.558Z,4.15
2018-12-15T15:25:08.129Z,4.14
2018-12-15T15:27:35.641Z,4.16
2018-12-15T15:30:04.807Z,4.18
2018-12-15T15:32:32.315Z,4.25
2018-12-15T15:34:59.820Z,4.20
2018-12-15T15:37:27.477Z,4.30
2018-12-15T15:39:55.344Z,4.22
2018-12-15T15:42:22.840Z,4.33
2018-12-15T15:44:50.748Z,4.34
2018-12-15T15:47:18.264Z,4.39
2018-12-15T15:49:45.924Z,4.45
2018-12-15T15:52:13.470Z,4.42
2018-12-15T15:54:43.051Z,4.43
2018-12-15T15:57:10.570Z,4.50
2018-12-15T15:59:38.292Z,4.41
2018-12-15T16:02:06.366Z,4.47
2018-12-15T16:04:37.679Z,4.28
2018-12-15T16:07:05.451Z,4.38
2018-12-15T16:09:32.959Z,4.31
2018-12-15T16:12:00.469Z,4.30
2018-12-15T16:14:28.276Z,4.32
2018-12-15T16:16:55.778Z,4.28
2018-12-15T16:19:23.648Z,4.31
2018-12-15T16:21:51.411Z,4.25
2018-12-15T16:24:18.968Z,4.25
2018-12-15T16:26:46.471Z,4.24
2018-12-15T16:29:13.986Z,4.19
2018-12-15T16:31:41.488Z,4.25
2018-12-15T16:34:26.613Z,4.23
2018-12-15T16:36:54.173Z,4.16
2018-12-15T16:39:21.686Z,4.16
2018-12-15T16:41:49.526Z,4.16
2018-12-15T16:44:17.471Z,4.31
2018-12-15T16:46:45.018Z,4.18
2018-12-15T16:49:19.139Z,4.24
2018-12-15T16:51:46.679Z,4.21
2018-12-15T16:54:14.207Z,4.14
2018-12-15T16:56:42.051Z,4.16
2018-12-15T16:59:09.571Z,4.16
2018-12-15T17:01:37.474Z,4.12
2018-12-15T17:04:05.099Z,4.18
2018-12-15T17:06:32.884Z,4.23
2018-12-15T17:09:00.392Z,4.21
2018-12-15T17:11:27.924Z,4.19
2018-12-15T17:13:55.442Z,4.16
2018-12-15T17:16:26.795Z,4.12
2018-12-15T17:18:54.343Z,4.13
2018-12-15T17:21:21.872Z,4.12
2018-12-15T17:23:49.563Z,4.19
2018-12-15T17:26:17.091Z,4.09
2018-12-15T17:28:44.894Z,4.12
2018-12-15T17:31:12.425Z,4.12
2018-12-15T17:33:40.230Z,4.14
2018-12-15T17:36:07.739Z,4.19
2018-12-15T17:38:35.557Z,4.18
2018-12-15T17:41:03.077Z,4.23
2018-12-15T17:43:30.603Z,4.21
2018-12-15T17:45:58.139Z,4.18
2018-12-15T17:48:26.089Z,4.14
2018-12-15T17:50:53.659Z,4.16
2018-12-15T17:53:21.303Z,4.14
2018-12-15T17:55:48.963Z,4.18
2018-12-15T17:58:16.477Z,4.14
2018-12-15T18:00:44.028Z,4.18
2018-12-15T18:03:11.551Z,4.16
2018-12-15T18:05:39.434Z,4.17
2018-12-15T18:08:06.959Z,4.19
2018-12-15T18:10:34.740Z,4.20
2018-12-15T18:13:02.252Z,4.13
2018-12-15T18:15:29.771Z,4.14
2018-12-15T18:17:57.295Z,4.18
2018-12-15T18:20:25.173Z,4.18
2018-12-15T18:22:53.049Z,4.19
2018-12-15T18:25:20.558Z,4.10
2018-12-15T18:27:48.525Z,4.29
2018-12-15T18:30:16.181Z,4.30
2018-12-15T18:32:43.980Z,4.31
2018-12-15T18:35:11.545Z,4.28
2018-12-15T18:37:39.097Z,4.29
2018-12-15T18:40:07.521Z,4.19
2018-12-15T18:42:41.354Z,4.32
2018-12-15T18:45:09.070Z,4.23
2018-12-15T18:47:37.115Z,4.19
2018-12-15T18:50:07.257Z,4.24
2018-12-15T18:52:34.791Z,4.22
2018-12-15T18:55:02.851Z,4.22
2018-12-15T18:57:30.364Z,4.23
2018-12-15T18:59:58.195Z,4.31
2018-12-15T19:02:25.717Z,4.26
2018-12-15T19:04:53.511Z,4.39
2018-12-15T19:07:21.023Z,4.38
2018-12-15T19:09:48.740Z,4.33
2018-12-15T19:12:16.273Z,4.36
2018-12-15T19:14:43.784Z,4.31
2018-12-15T19:17:11.639Z,4.32
2018-12-15T19:19:39.215Z,4.32
2018-12-15T19:22:06.721Z,4.38
2018-12-15T19:24:34.227Z,4.32
2018-12-15T19:27:01.960Z,4.37
2018-12-15T19:29:29.472Z,4.33
2018-12-15T19:31:57.067Z,4.26
2018-12-15T19:34:24.592Z,4.25
2018-12-15T19:36:52.155Z,4.25
2018-12-15T19:39:19.742Z,4.23
2018-12-15T19:41:48.530Z,4.24
2018-12-15T19:44:16.046Z,4.27
2018-12-15T19:46:43.558Z,4.32
2018-12-15T19:49:11.324Z,4.40
2018-12-15T19:51:38.879Z,4.33
2018-12-15T19:54:06.641Z,4.25
2018-12-15T19:56:34.173Z,4.20
2018-12-15T19:59:01.706Z,4.25
2018-12-15T20:01:29.247Z,4.20
2018-12-15T20:03:56.801Z,4.15
2018-12-15T20:06:24.313Z,4.14
2018-12-15T20:08:51.859Z,4.17
2018-12-15T20:11:19.359Z,4.22
2018-12-15T20:13:47.005Z,4.23
2018-12-15T20:16:14.898Z,4.18
2018-12-15T20:18:42.419Z,4.19
2018-12-15T20:21:09.984Z,4.23
2018-12-15T20:23:37.849Z,4.20
2018-12-15T20:26:15.392Z,4.18
2018-12-15T20:28:42.913Z,4.22
2018-12-15T20:31:10.723Z,4.21
2018-12-15T20:33:38.522Z,4.20
2018-12-15T20:36:06.812Z,4.21
2018-12-15T20:38:34.312Z,4.21
2018-12-15T20:41:01.826Z,4.23
2018-12-15T20:43:29.688Z,4.22
2018-12-15T20:45:57.214Z,4.37
2018-12-15T20:48:24.714Z,4.43
2018-12-15T20:50:52.312Z,4.45
2018-12-15T20:53:19.833Z,4.47
2018-12-15T20:55:47.363Z,4.46
2018-12-15T20:58:14.886Z,4.50
2018-12-15T21:00:42.435Z,4.52
2018-12-15T21:03:10.599Z,4.52
2018-12-15T21:05:38.475Z,4.52
2018-12-15T21:08:06.061Z,4.58
2018-12-15T21:10:33.691Z,4.60
2018-12-15T21:13:01.216Z,4.58
2018-12-15T21:15:28.873Z,4.65
2018-12-15T21:17:56.756Z,4.63
2018-12-15T21:20:24.272Z,4.68
2018-12-15T21:22:51.859Z,4.75
2018-12-15T21:25:19.401Z,4.82
2018-12-15T21:27:47.090Z,4.84
2018-12-15T21:30:14.676Z,4.88
2018-12-15T21:32:42.428Z,4.91
2018-12-15T21:35:09.969Z,4.91
2018-12-15T21:37:38.031Z,4.92
2018-12-15T21:40:06.431Z,4.91
2018-12-15T21:42:35.816Z,4.93
2018-12-15T21:45:10.312Z,4.95
2018-12-15T21:47:38.118Z,4.94
2018-12-15T21:50:05.900Z,4.94
2018-12-15T21:52:33.413Z,4.99
2018-12-15T21:55:00.952Z,5.01
2018-12-15T21:57:28.498Z,4.96
2018-12-15T21:59:56.012Z,4.95
2018-12-15T22:02:23.788Z,4.93
2018-12-15T22:04:51.319Z,4.92
2018-12-15T22:07:18.815Z,4.94
2018-12-15T22:09:46.357Z,4.94
2018-12-15T22:12:13.890Z,4.93
2018-12-15T22:14:41.395Z,4.92
2018-12-15T22:17:08.930Z,4.92
2018-12-15T22:19:36.440Z,4.91
2018-12-15T22:22:03.944Z,4.91
2018-12-15T22:24:31.807Z,4.90
2018-12-15T22:26:59.404Z,4.89
2018-12-15T22:29:26.974Z,4.86
2018-12-15T22:31:54.679Z,4.90
2018-12-15T22:34:22.181Z,4.91
2018-12-15T22:36:49.741Z,4.89
2018-12-15T22:39:17.345Z,4.88
2018-12-15T22:41:45.228Z,4.89
2018-12-15T22:44:12.763Z,4.98
2018-12-15T22:46:40.330Z,5.02
2018-12-15T22:49:07.872Z,5.02
2018-12-15T22:51:35.515Z,5.06
2018-12-15T22:54:03.273Z,5.08
2018-12-15T22:56:30.816Z,5.04
2018-12-15T22:58:58.328Z,5.03
2018-12-15T23:01:26.315Z,5.05
2018-12-15T23:03:53.822Z,5.08
2018-12-15T23:06:21.656Z,5.07
2018-12-15T23:08:49.185Z,5.02
2018-12-15T23:11:17.042Z,5.10
2018-12-15T23:13:44.585Z,5.11
2018-12-15T23:16:12.375Z,5.13
2018-12-15T23:18:39.897Z,5.15
2018-12-15T23:21:07.430Z,5.20
2018-12-15T23:23:35.353Z,5.27
2018-12-15T23:26:02.872Z,5.26
2018-12-15T23:28:30.384Z,5.39
2018-12-15T23:30:58.248Z,5.40
2018-12-15T23:33:25.792Z,5.53
2018-12-15T23:35:53.297Z,5.54
2018-12-15T23:38:20.805Z,5.55
2018-12-15T23:40:48.335Z,5.63
2018-12-15T23:43:16.145Z,5.64
2018-12-15T23:45:43.657Z,5.58
2018-12-15T23:48:11.174Z,5.56
2018-12-15T23:50:38.742Z,5.53
2018-12-15T23:53:06.244Z,5.63
2018-12-15T23:55:33.765Z,5.68
2018-12-15T23:58:01.311Z,5.68
